createdAt,value
2023-11-19T00:01:50.423Z,5.3
2023-11-19T00:06:50.416Z,5.3
2023-11-19T00:16:50.357Z,5.3
2023-11-19T00:21:50.361Z,5.3
2023-11-19T00:26:50.324Z,5.4
2023-11-19T00:31:50.423Z,5.3
2023-11-19T00:36:50.413Z,5.4
2023-11-19T00:41:50.367Z,5.4
2023-11-19T00:46:50.441Z,5.4
2023-11-19T00:51:50.466Z,5.5
2023-11-19T00:56:50.397Z,5.6
2023-11-19T01:01:50.389Z,5.4
2023-11-19T01:06:50.454Z,5.5
2023-11-19T01:11:50.349Z,5.6
2023-11-19T01:16:50.444Z,5.4
2023-11-19T01:21:50.388Z,5.4
2023-11-19T01:26:50.353Z,5.6
2023-11-19T01:31:50.349Z,5.6
2023-11-19T01:36:50.526Z,5.6
2023-11-19T01:41:50.355Z,5.6
2023-11-19T01:46:50.406Z,5.7
2023-11-19T01:51:50.363Z,5.7
2023-11-19T01:56:50.403Z,5.6
2023-11-19T02:02:00.241Z,5.7
2023-11-19T02:06:50.392Z,5.8
2023-11-19T02:11:50.368Z,5.8
2023-11-19T02:16:50.533Z,5.7
2023-11-19T02:21:50.437Z,5.8
2023-11-19T02:26:50.380Z,5.8
2023-11-19T02:31:50.406Z,5.8
2023-11-19T02:36:50.398Z,5.9
2023-11-19T02:41:50.443Z,5.9
2023-11-19T02:46:50.426Z,5.8
2023-11-19T02:51:50.352Z,5.9
2023-11-19T02:56:50.403Z,5.9
2023-11-19T03:01:50.413Z,5.9
2023-11-19T03:06:50.414Z,6
2023-11-19T03:11:50.416Z,6.1
2023-11-19T03:16:50.461Z,6.1
2023-11-19T03:21:50.429Z,6.1
2023-11-19T03:26:50.437Z,6
2023-11-19T03:31:50.399Z,6.1
2023-11-19T03:36:50.413Z,6.1
2023-11-19T03:41:50.397Z,6.2
2023-11-19T03:46:50.444Z,6.2
2023-11-19T03:51:50.361Z,6.2
2023-11-19T03:56:50.419Z,6.3
2023-11-19T04:01:50.521Z,6.3
2023-11-19T04:06:50.410Z,6.3
2023-11-19T04:11:50.403Z,6.4
2023-11-19T04:16:50.421Z,6.5
2023-11-19T04:21:50.389Z,6.5
2023-11-19T04:26:50.454Z,6.6
2023-11-19T04:31:50.461Z,6.7
2023-11-19T04:36:50.424Z,6.7
2023-11-19T04:41:50.419Z,6.8
2023-11-19T04:46:50.494Z,6.8
2023-11-19T04:51:50.419Z,6.9
2023-11-19T04:56:50.405Z,6.9
2023-11-19T05:01:50.432Z,7
2023-11-19T05:06:50.436Z,7
2023-11-19T05:11:51.888Z,7.1
2023-11-19T05:16:50.691Z,7.1
2023-11-19T05:21:50.391Z,7.1
2023-11-19T05:26:50.427Z,7.3
2023-11-19T05:31:50.428Z,7.3
2023-11-19T05:36:50.442Z,7.3
2023-11-19T05:41:50.446Z,7.4
2023-11-19T05:46:50.469Z,7.5
2023-11-19T05:51:50.529Z,7.6
2023-11-19T05:56:50.386Z,7.6
2023-11-19T06:01:50.454Z,7.6
2023-11-19T06:06:50.430Z,7.6
2023-11-19T06:11:50.462Z,7.7
2023-11-19T06:16:50.457Z,7.8
2023-11-19T06:21:50.431Z,7.9
2023-11-19T06:26:50.441Z,8
2023-11-19T06:31:50.411Z,8.1
2023-11-19T06:36:50.507Z,8.1
2023-11-19T06:41:50.454Z,8.1
2023-11-19T06:46:50.442Z,8.3
2023-11-19T06:51:50.458Z,8.4
2023-11-19T06:56:50.452Z,8.4
2023-11-19T07:01:50.453Z,8.4
2023-11-19T07:06:50.422Z,8.7
2023-11-19T07:11:50.406Z,8.8
2023-11-19T07:16:50.432Z,8.9
2023-11-19T07:21:50.465Z,9.1
2023-11-19T07:26:50.448Z,9.3
2023-11-19T07:31:50.425Z,9.3
2023-11-19T07:36:50.423Z,9.4
2023-11-19T07:41:50.425Z,9.6
2023-11-19T07:46:50.468Z,9.6
2023-11-19T07:51:50.443Z,9.8
2023-11-19T07:56:50.468Z,9.9
2023-11-19T08:01:50.428Z,9.9
2023-11-19T08:06:50.382Z,10.1
2023-11-19T08:11:50.371Z,10.1
2023-11-19T08:16:50.421Z,10.3
2023-11-19T08:21:50.471Z,10.3
2023-11-19T08:27:02.658Z,10.4
2023-11-19T08:31:50.382Z,10.5
2023-11-19T08:36:50.442Z,10.8
2023-11-19T08:41:50.440Z,10.8
2023-11-19T08:46:50.519Z,10.9
2023-11-19T08:51:50.638Z,10.9
2023-11-19T08:56:50.478Z,11.1
2023-11-19T09:01:50.512Z,11.2
2023-11-19T09:06:50.446Z,11.3
2023-11-19T09:11:50.684Z,11.5
2023-11-19T09:16:50.467Z,11.6
2023-11-19T09:21:50.434Z,11.6
2023-11-19T09:26:50.419Z,11.6
2023-11-19T09:31:50.447Z,11.6
2023-11-19T09:36:50.420Z,11.9
2023-11-19T09:41:50.484Z,12
2023-11-19T09:46:50.468Z,12.1
2023-11-19T09:51:50.429Z,12.3
2023-11-19T09:56:50.450Z,12.3
2023-11-19T10:01:50.421Z,12.3
2023-11-19T10:06:50.435Z,12.2
2023-11-19T10:11:50.488Z,12.1
2023-11-19T10:16:50.509Z,12.1
2023-11-19T10:21:50.447Z,11.9
2023-11-19T10:26:50.669Z,11.7
2023-11-19T10:41:50.637Z,11.8
2023-11-19T10:46:50.465Z,12.1
2023-11-19T10:51:50.456Z,12.1
2023-11-19T10:56:50.670Z,12
2023-11-19T11:01:50.464Z,12.1
2023-11-19T11:06:50.471Z,12.3
2023-11-19T11:11:50.454Z,12.6
2023-11-19T11:16:50.476Z,12.5
2023-11-19T11:21:50.457Z,12.6
2023-11-19T11:26:50.423Z,12.9
2023-11-19T11:31:50.531Z,12.8
2023-11-19T11:36:50.501Z,12.8
2023-11-19T11:41:50.492Z,13
2023-11-19T11:46:50.506Z,13.2
2023-11-19T11:51:50.503Z,12.9
2023-11-19T11:56:50.490Z,13.1
2023-11-19T12:01:50.510Z,13.4
2023-11-19T12:06:50.477Z,13.6
2023-11-19T12:11:50.483Z,13.3
2023-11-19T12:16:50.433Z,13.2
2023-11-19T12:21:50.517Z,13.3
2023-11-19T12:26:50.479Z,14
2023-11-19T12:31:50.526Z,14.7
2023-11-19T12:36:50.569Z,15
2023-11-19T12:41:50.472Z,15.2
2023-11-19T12:46:50.471Z,15.4
2023-11-19T12:51:50.506Z,14.4
2023-11-19T12:56:50.694Z,14.4
2023-11-19T13:01:50.490Z,14.4
2023-11-19T13:11:50.746Z,14.2
2023-11-19T13:16:50.556Z,14.6
2023-11-19T13:21:50.564Z,14.1
2023-11-19T13:26:50.520Z,13.9
2023-11-19T13:31:50.508Z,14.4
2023-11-19T13:36:50.497Z,14.5
2023-11-19T13:41:50.465Z,14.3
2023-11-19T13:46:50.445Z,13.8
2023-11-19T13:51:50.465Z,13.6
2023-11-19T13:56:50.494Z,13.5
2023-11-19T14:01:50.474Z,13.5
2023-11-19T14:06:50.476Z,13.7
2023-11-19T14:11:50.764Z,13.8
2023-11-19T14:16:50.500Z,14.1
2023-11-19T14:21:50.489Z,14.5
2023-11-19T14:26:50.488Z,14.5
2023-11-19T14:31:50.757Z,14.6
2023-11-19T14:36:50.629Z,14.3
2023-11-19T14:41:50.526Z,13.9
2023-11-19T14:46:50.537Z,13.8
2023-11-19T14:51:50.519Z,13.6
2023-11-19T14:56:50.511Z,13.3
2023-11-19T15:01:50.547Z,13.1
2023-11-19T15:06:50.646Z,12.9
2023-11-19T15:11:50.508Z,12.6
2023-11-19T15:16:50.579Z,12.7
2023-11-19T15:21:50.503Z,12.9
2023-11-19T15:26:50.511Z,13
2023-11-19T15:31:50.562Z,12.8
2023-11-19T15:36:50.513Z,12.5
2023-11-19T15:41:50.540Z,12.8
2023-11-19T15:46:50.554Z,12.6
2023-11-19T15:51:50.522Z,12.3
2023-11-19T15:56:50.516Z,12.4
2023-11-19T16:01:50.749Z,12.4
2023-11-19T16:06:50.541Z,12.3
2023-11-19T16:11:54.031Z,12.3
2023-11-19T16:16:50.520Z,12.1
2023-11-19T16:21:50.669Z,11.9
2023-11-19T16:26:50.516Z,11.8
2023-11-19T16:31:50.537Z,11.6
2023-11-19T16:36:50.522Z,11.4
2023-11-19T16:41:50.542Z,11.5
2023-11-19T16:46:50.578Z,11.4
2023-11-19T16:51:50.537Z,11.4
2023-11-19T16:56:50.570Z,11.3
2023-11-19T17:01:50.611Z,11.3
2023-11-19T17:06:50.553Z,11.3
2023-11-19T17:11:50.574Z,11.3
2023-11-19T17:16:50.536Z,11.6
2023-11-19T17:21:50.555Z,11.7
2023-11-19T17:26:50.702Z,11.7
2023-11-19T17:31:50.555Z,11.6
2023-11-19T17:36:50.542Z,11.4
2023-11-19T17:41:50.556Z,11.8
2023-11-19T17:46:50.547Z,11.5
2023-11-19T17:51:50.562Z,11.4
2023-11-19T17:56:50.569Z,11.6
2023-11-19T18:01:50.556Z,11.4
2023-11-19T18:06:50.543Z,11.4
2023-11-19T18:11:50.549Z,11.2
2023-11-19T18:16:50.553Z,11.1
2023-11-19T18:21:50.568Z,11.4
2023-11-19T18:26:50.594Z,11.5
2023-11-19T18:31:50.566Z,11.3
2023-11-19T18:36:50.582Z,11
2023-11-19T18:41:50.606Z,10.9
2023-11-19T18:46:50.577Z,11.1
2023-11-19T18:51:50.599Z,10.8
2023-11-19T18:56:50.572Z,10.7
2023-11-19T19:01:50.592Z,10.4
2023-11-19T19:06:50.622Z,10.1
2023-11-19T19:11:50.550Z,10.1
2023-11-19T19:16:50.554Z,10.1
2023-11-19T19:21:50.584Z,10.4
2023-11-19T19:26:50.599Z,11.1
2023-11-19T19:31:50.597Z,11.1
2023-11-19T19:36:50.629Z,11.4
2023-11-19T19:41:50.706Z,11.6
2023-11-19T19:46:50.545Z,11.5
2023-11-19T19:51:50.580Z,11.3
2023-11-19T19:56:50.563Z,11.2
2023-11-19T20:01:50.603Z,11.3
2023-11-19T20:06:50.594Z,11.3
2023-11-19T20:11:50.619Z,11.2
2023-11-19T20:17:10.790Z,11
2023-11-19T20:21:50.604Z,10.9
2023-11-19T20:26:50.604Z,10.8
2023-11-19T20:31:50.583Z,10.4
2023-11-19T20:36:50.581Z,10.3
2023-11-19T20:41:50.575Z,10.4
2023-11-19T20:46:50.582Z,10.5
2023-11-19T20:51:50.595Z,10.4
2023-11-19T20:56:50.592Z,10.2
2023-11-19T21:01:50.636Z,10.1
2023-11-19T21:11:50.587Z,10.1
2023-11-19T21:16:50.707Z,10
2023-11-19T21:21:50.680Z,9.9
2023-11-19T21:26:50.594Z,9.9
2023-11-19T21:36:50.631Z,10.2
2023-11-19T21:41:50.614Z,10.1
2023-11-19T21:46:50.611Z,9.9
2023-11-19T21:51:50.602Z,9.7
2023-11-19T21:56:50.583Z,9.6
2023-11-19T22:01:50.607Z,9.5
2023-11-19T22:06:50.637Z,9.6
2023-11-19T22:11:50.625Z,9.5
2023-11-19T22:16:50.625Z,9.6
2023-11-19T22:21:50.591Z,9.6
2023-11-19T22:26:50.596Z,9.5
2023-11-19T22:31:50.619Z,9.6
2023-11-19T22:36:50.614Z,9.6
2023-11-19T22:41:50.572Z,9.6
2023-11-19T22:46:50.612Z,9.6
2023-11-19T22:51:50.616Z,9.7
2023-11-19T22:56:50.631Z,9.8
2023-11-19T23:01:50.603Z,9.7
2023-11-19T23:06:50.709Z,9.8
2023-11-19T23:11:50.594Z,9.8
2023-11-19T23:16:50.628Z,9.9
2023-11-19T23:21:50.651Z,9.9
2023-11-19T23:26:50.621Z,9.9
2023-11-19T23:31:50.604Z,10
2023-11-19T23:36:50.629Z,9.9
2023-11-19T23:41:50.617Z,10
2023-11-19T23:46:50.621Z,9.9
2023-11-19T23:51:50.646Z,10
2023-11-19T23:56:50.617Z,10
